Terminal Aerodrome Forecast
Issued by NWS

Current Version | Previous Version | Graphics & Text | Print | Product List | Glossary On
Versions: 1 2 3 4 5 6 7 8 9 10 11 12 13 14 15 16 17
000
FTUS41 KILN 262300 RRA
TAFLCK
TAF
KLCK 262348Z 2700/2724 35010KT P6SM SCT035 BKN040
     FM270500 34005KT P6SM BKN025
     FM270900 34005KT P6SM SCT025
     FM271800 30004KT P6SM SKC=

USA.gov is the U.S. government's official web portal to all federal, state and local government web resources and services.